Time;durP1;ratioP1;P1;durP2;ratioP2;P2;SDS_P1;SDS_P2;PMS_P1;PMS_P2;Temp;Humidity;BMP_temperature;BMP_pressure;BME280_temperature;BME280_humidity;BME280_pressure;Samples;Min_cycle;Max_cycle;Signal;HPM_P1;HPM_P2
2023/04/08 00:01:01;;;;;;;71.73;11.17;;;8.40;99.90;;;;;;5035607;28;20503;-81
2023/04/08 00:03:27;;;;;;;58.40;11.47;;;8.30;99.90;;;;;;5052420;28;20381;-80
2023/04/08 00:05:53;;;;;;;79.33;10.80;;;8.30;99.90;;;;;;5035772;28;20037;-80
2023/04/08 00:08:18;;;;;;;64.30;11.00;;;8.30;99.90;;;;;;5035545;28;20029;-80
2023/04/08 00:10:44;;;;;;;77.00;11.67;;;8.30;99.90;;;;;;5035525;28;20036;-81
2023/04/08 00:13:10;;;;;;;52.37;10.53;;;8.20;99.90;;;;;;5035319;28;20487;-80
2023/04/08 00:15:36;;;;;;;107.67;12.30;;;8.20;99.90;;;;;;5035145;28;20029;-80
2023/04/08 00:18:02;;;;;;;79.17;11.00;;;8.30;99.90;;;;;;5036132;28;20031;-81
2023/04/08 00:20:37;;;;;;;95.30;11.27;;;8.20;99.90;;;;;;5034215;28;20067;-81
2023/04/08 00:23:02;;;;;;;106.53;10.90;;;8.20;99.90;;;;;;5035636;28;20025;-81
2023/04/08 00:25:28;;;;;;;117.23;11.90;;;8.20;99.90;;;;;;5018976;28;20029;-81
2023/04/08 00:27:54;;;;;;;139.13;10.67;;;8.20;99.90;;;;;;5018904;28;20021;-81
2023/04/08 00:30:20;;;;;;;94.63;10.37;;;8.10;99.90;;;;;;5035377;28;20025;-81
2023/04/08 00:32:46;;;;;;;96.60;10.67;;;8.10;99.90;;;;;;5018953;28;20029;-81
2023/04/08 00:35:11;;;;;;;90.70;10.10;;;8.10;99.90;;;;;;5018869;28;20033;-81
2023/04/08 00:37:37;;;;;;;94.23;10.13;;;8.10;99.90;;;;;;5035147;28;20048;-81
2023/04/08 00:40:03;;;;;;;104.73;11.07;;;8.00;99.90;;;;;;5035336;28;20032;-80
2023/04/08 00:42:29;;;;;;;76.33;10.07;;;8.00;99.90;;;;;;5018878;28;20036;-81
2023/04/08 00:44:55;;;;;;;124.60;10.47;;;8.00;99.90;;;;;;5035190;28;20025;-80
2023/04/08 00:47:21;;;;;;;67.23;10.87;;;7.90;99.90;;;;;;5034991;28;20392;-81
2023/04/08 00:49:47;;;;;;;76.00;10.53;;;7.90;99.90;;;;;;5034916;28;20043;-81
2023/04/08 00:52:12;;;;;;;66.10;9.77;;;7.90;99.90;;;;;;5018722;28;20025;-81
2023/04/08 00:54:38;;;;;;;67.07;10.70;;;7.90;99.90;;;;;;5018671;28;20120;-81
2023/04/08 00:57:05;;;;;;;75.77;9.50;;;7.90;99.90;;;;;;5018649;28;20038;-80
2023/04/08 00:59:32;;;;;;;72.23;9.63;;;7.80;99.90;;;;;;5035174;28;20067;-79
2023/04/08 01:02:19;;;;;;;71.70;9.03;;;7.70;99.90;;;;;;5018619;28;20365;-79
2023/04/08 01:05:26;;;;;;;74.43;8.80;;;7.70;99.90;;;;;;5034973;28;20037;-79
2023/04/08 01:07:52;;;;;;;86.33;9.60;;;7.70;99.90;;;;;;5042498;28;20028;-79
2023/04/08 01:10:21;;;;;;;102.10;9.57;;;7.70;99.90;;;;;;5038449;28;20507;-79
2023/04/08 01:12:56;;;;;;;67.23;8.37;;;7.70;99.90;;;;;;5055028;28;20047;-79
2023/04/08 01:15:25;;;;;;;62.63;8.27;;;7.60;99.90;;;;;;5054811;28;20028;-79
2023/04/08 01:17:53;;;;;;;86.20;9.03;;;7.50;99.90;;;;;;5072789;28;20477;-79
2023/04/08 01:20:20;;;;;;;68.27;8.83;;;7.50;99.90;;;;;;5054769;28;20384;-79
2023/04/08 01:23:12;;;;;;;74.93;8.13;;;7.50;99.90;;;;;;5054748;28;20082;-79
2023/04/08 01:25:38;;;;;;;65.13;7.40;;;7.50;99.90;;;;;;5054553;28;20017;-79
2023/04/08 01:28:14;;;;;;;56.57;7.90;;;7.40;99.90;;;;;;5038066;28;20025;-79
2023/04/08 01:30:41;;;;;;;52.10;7.90;;;7.40;99.90;;;;;;5054613;28;20021;-79
2023/04/08 01:33:10;;;;;;;44.63;6.93;;;7.30;99.90;;;;;;5054656;28;20066;-78
2023/04/08 01:35:36;;;;;;;16.90;7.60;;;7.30;99.90;;;;;;5054539;28;20388;-78
2023/04/08 01:38:04;;;;;;;16.90;7.40;;;7.30;99.90;;;;;;5034819;28;20049;-78
2023/04/08 01:40:31;;;;;;;16.67;7.13;;;7.30;99.90;;;;;;5051555;28;20025;-79
2023/04/08 01:42:58;;;;;;;13.43;6.70;;;7.30;99.90;;;;;;5034925;28;20029;-80
2023/04/08 01:45:24;;;;;;;18.67;6.87;;;7.30;99.90;;;;;;5051288;28;20487;-80
2023/04/08 01:47:51;;;;;;;14.13;7.80;;;7.40;99.90;;;;;;5034861;28;20033;-80
2023/04/08 01:50:18;;;;;;;19.77;7.20;;;7.30;99.90;;;;;;5034881;28;20116;-80
2023/04/08 01:52:46;;;;;;;19.53;7.27;;;7.10;99.90;;;;;;5034683;28;20028;-80
2023/04/08 01:55:12;;;;;;;15.97;7.90;;;7.20;99.90;;;;;;5051203;28;20021;-80
2023/04/08 01:57:40;;;;;;;17.03;7.80;;;7.20;99.90;;;;;;5034772;28;20029;-80
2023/04/08 02:00:11;;;;;;;11.27;7.10;;;7.20;99.90;;;;;;5054750;28;20406;-80
2023/04/08 02:02:40;;;;;;;14.70;8.03;;;7.20;99.90;;;;;;5038353;28;20098;-80
2023/04/08 02:05:06;;;;;;;11.07;7.13;;;7.10;99.90;;;;;;5054715;28;20072;-80
2023/04/08 02:07:31;;;;;;;12.83;7.13;;;7.10;99.90;;;;;;5038127;28;20060;-80
2023/04/08 02:09:57;;;;;;;11.17;7.10;;;7.10;99.90;;;;;;5037972;28;20032;-80
2023/04/08 02:12:24;;;;;;;10.20;6.73;;;7.10;99.90;;;;;;5054664;28;20021;-80
2023/04/08 02:14:50;;;;;;;11.07;6.93;;;7.00;99.90;;;;;;5054689;28;20060;-80
2023/04/08 02:17:28;;;;;;;11.10;7.23;;;6.90;99.90;;;;;;5054633;28;20020;-80
2023/04/08 02:20:06;;;;;;;13.20;6.93;;;6.90;99.90;;;;;;5054427;28;20036;-80
2023/04/08 02:22:54;;;;;;;11.73;6.93;;;6.90;99.90;;;;;;5054253;28;20028;-79
2023/04/08 02:25:23;;;;;;;12.83;7.50;;;6.90;99.90;;;;;;5055490;28;20021;-79
2023/04/08 02:27:50;;;;;;;10.83;7.07;;;6.90;99.90;;;;;;5054233;28;20481;-79
2023/04/08 02:30:17;;;;;;;10.87;7.20;;;6.90;99.90;;;;;;5054177;28;20115;-79
2023/04/08 02:32:44;;;;;;;11.97;6.60;;;6.80;99.90;;;;;;5054207;28;20021;-78
2023/04/08 02:35:12;;;;;;;10.63;6.70;;;6.70;99.90;;;;;;5037651;28;20060;-78
2023/04/08 02:37:38;;;;;;;10.80;6.87;;;6.70;99.90;;;;;;5065430;28;20037;-79
2023/04/08 02:40:20;;;;;;;11.00;7.00;;;6.60;99.90;;;;;;5057249;28;20027;-78
2023/04/08 02:42:46;;;;;;;11.77;7.57;;;6.60;99.90;;;;;;5057260;28;20048;-78
2023/04/08 02:45:12;;;;;;;9.73;6.37;;;6.50;99.90;;;;;;5050910;28;20057;-78
2023/04/08 02:47:37;;;;;;;10.23;6.40;;;6.40;99.90;;;;;;5020724;28;20449;-78
2023/04/08 02:50:03;;;;;;;11.47;7.50;;;6.40;99.90;;;;;;5037057;28;20025;-79
2023/04/08 02:52:29;;;;;;;10.80;6.87;;;6.40;99.90;;;;;;5037372;28;20036;-78
2023/04/08 02:54:54;;;;;;;11.13;7.13;;;6.30;99.90;;;;;;5037276;28;20413;-78
2023/04/08 02:57:20;;;;;;;11.97;7.13;;;6.20;99.90;;;;;;5036890;28;20026;-78
2023/04/08 02:59:45;;;;;;;11.67;7.30;;;6.20;99.90;;;;;;5037011;28;20029;-78
2023/04/08 03:02:11;;;;;;;10.60;7.00;;;6.10;99.90;;;;;;5037094;28;20024;-78
2023/04/08 03:04:37;;;;;;;11.53;7.17;;;6.10;99.90;;;;;;5036784;28;20029;-78
2023/04/08 03:07:02;;;;;;;12.80;7.37;;;6.00;99.90;;;;;;5053712;28;20118;-78
2023/04/08 03:09:28;;;;;;;12.17;7.73;;;6.00;99.90;;;;;;5036690;28;20022;-78
2023/04/08 03:11:53;;;;;;;12.10;8.03;;;5.90;99.90;;;;;;5036763;28;20184;-78
2023/04/08 03:14:20;;;;;;;11.77;7.77;;;5.90;99.90;;;;;;5036545;28;20025;-78
2023/04/08 03:16:46;;;;;;;13.17;7.83;;;5.90;99.90;;;;;;5053371;28;20420;-78
2023/04/08 03:19:11;;;;;;;12.10;7.73;;;5.80;99.90;;;;;;5036455;28;20025;-78
2023/04/08 03:21:37;;;;;;;10.03;6.57;;;5.70;99.90;;;;;;5036571;28;20029;-78
2023/04/08 03:24:03;;;;;;;10.90;7.10;;;5.70;99.90;;;;;;5036569;28;20029;-78
2023/04/08 03:26:28;;;;;;;11.80;7.33;;;5.70;99.90;;;;;;5036473;28;20017;-78
2023/04/08 03:28:54;;;;;;;12.17;7.83;;;5.60;99.90;;;;;;5053396;28;20033;-78
2023/04/08 03:31:20;;;;;;;11.77;7.33;;;5.60;99.90;;;;;;5036310;28;20025;-78
2023/04/08 03:33:46;;;;;;;10.97;7.03;;;5.60;99.90;;;;;;5036430;28;20028;-78
2023/04/08 03:36:11;;;;;;;10.90;7.03;;;5.50;99.90;;;;;;5054081;28;20032;-79
2023/04/08 03:38:37;;;;;;;11.27;7.13;;;5.50;99.90;;;;;;5036075;28;20059;-79
2023/04/08 03:41:03;;;;;;;11.40;7.03;;;5.40;99.90;;;;;;5036721;28;20013;-78
2023/04/08 03:43:28;;;;;;;11.37;7.50;;;5.40;99.90;;;;;;5036249;28;20112;-78
2023/04/08 03:45:55;;;;;;;11.97;7.67;;;5.40;99.90;;;;;;5052847;28;20035;-78
2023/04/08 03:48:20;;;;;;;11.83;7.37;;;5.30;99.90;;;;;;5036330;28;20496;-78
2023/04/08 03:50:46;;;;;;;11.83;7.13;;;5.30;99.90;;;;;;5052731;28;20033;-78
2023/04/08 03:53:12;;;;;;;11.80;7.07;;;5.30;99.90;;;;;;5062432;28;20040;-79
2023/04/08 03:55:38;;;;;;;11.93;7.70;;;5.30;99.90;;;;;;5019591;28;20032;-78
2023/04/08 03:58:03;;;;;;;11.73;6.73;;;5.30;99.90;;;;;;5019332;28;20025;-78
2023/04/08 04:00:29;;;;;;;10.17;6.57;;;5.20;99.90;;;;;;5003124;28;20388;-79
2023/04/08 04:02:55;;;;;;;11.43;6.80;;;5.20;99.90;;;;;;5003232;28;20021;-78
2023/04/08 04:05:21;;;;;;;12.23;7.67;;;5.10;99.90;;;;;;5019409;28;20029;-78
2023/04/08 04:07:46;;;;;;;11.53;7.00;;;5.10;99.90;;;;;;5035818;28;20496;-78
2023/04/08 04:10:12;;;;;;;12.23;7.87;;;5.00;99.90;;;;;;5029887;28;20027;-78
2023/04/08 04:12:38;;;;;;;12.27;7.97;;;5.00;99.90;;;;;;5058921;28;20043;-78
2023/04/08 04:15:04;;;;;;;11.80;7.97;;;5.00;99.90;;;;;;5058970;28;20081;-78
2023/04/08 04:17:29;;;;;;;12.50;8.00;;;5.00;99.90;;;;;;5059133;28;20028;-78
2023/04/08 04:19:55;;;;;;;13.10;8.03;;;4.90;99.90;;;;;;5058790;28;20024;-78
2023/04/08 04:22:21;;;;;;;12.83;8.13;;;4.90;99.90;;;;;;5093357;28;20383;-78
2023/04/08 04:24:47;;;;;;;14.67;8.50;;;4.90;99.90;;;;;;5026939;28;20036;-78
2023/04/08 04:27:16;;;;;;;13.40;8.93;;;4.90;99.90;;;;;;5035350;28;20102;-78
2023/04/08 04:29:42;;;;;;;13.70;9.30;;;5.00;99.90;;;;;;5035829;28;20489;-78
2023/04/08 04:32:07;;;;;;;14.90;8.50;;;4.90;99.90;;;;;;5035441;28;20083;-78
2023/04/08 04:34:33;;;;;;;14.57;9.77;;;4.80;99.90;;;;;;5035451;28;20043;-79
2023/04/08 04:36:59;;;;;;;17.77;10.47;;;4.80;99.90;;;;;;5053453;28;20119;-79
2023/04/08 04:39:25;;;;;;;14.00;9.33;;;4.80;99.90;;;;;;5019014;28;20025;-79
2023/04/08 04:41:51;;;;;;;16.33;10.67;;;4.70;99.90;;;;;;5018796;28;20025;-79
2023/04/08 04:44:16;;;;;;;17.70;11.60;;;4.80;99.90;;;;;;5018779;28;20032;-80
2023/04/08 04:46:42;;;;;;;17.70;10.23;;;4.70;99.90;;;;;;5035285;28;20037;-81
2023/04/08 04:49:08;;;;;;;16.17;10.03;;;4.60;99.90;;;;;;5018770;28;20021;-80
2023/04/08 04:51:33;;;;;;;16.83;10.73;;;4.60;99.90;;;;;;5018838;28;20029;-79
2023/04/08 04:53:59;;;;;;;15.93;10.00;;;4.60;99.90;;;;;;5018843;28;20074;-80
2023/04/08 04:56:26;;;;;;;15.77;10.13;;;4.60;99.90;;;;;;5019236;28;20451;-80
2023/04/08 04:58:51;;;;;;;16.17;10.47;;;4.50;99.90;;;;;;5035207;28;20562;-80
2023/04/08 05:01:17;;;;;;;15.77;9.87;;;4.50;99.90;;;;;;5035087;28;20036;-80
2023/04/08 05:03:43;;;;;;;17.47;10.93;;;4.50;99.90;;;;;;5018690;28;20029;-80
2023/04/08 05:06:08;;;;;;;15.60;10.50;;;4.50;99.90;;;;;;5018566;28;20025;-80
2023/04/08 05:08:34;;;;;;;15.87;10.00;;;4.40;99.90;;;;;;5018579;28;20025;-80
2023/04/08 05:11:01;;;;;;;16.27;10.30;;;4.40;99.90;;;;;;5051560;28;20033;-80
2023/04/08 05:13:31;;;;;;;18.67;11.47;;;4.40;99.90;;;;;;5035395;28;20492;-80
2023/04/08 05:15:56;;;;;;;16.63;10.10;;;4.40;99.90;;;;;;5034925;28;20067;-80
2023/04/08 05:18:22;;;;;;;17.27;9.97;;;4.40;99.90;;;;;;5018399;28;20496;-80
2023/04/08 05:20:48;;;;;;;14.27;9.87;;;4.30;99.90;;;;;;5018372;28;20124;-79
2023/04/08 05:23:13;;;;;;;16.27;10.43;;;4.30;99.90;;;;;;5018222;28;20032;-80
2023/04/08 05:25:39;;;;;;;15.23;10.27;;;4.30;99.90;;;;;;5018294;28;20388;-80
2023/04/08 05:28:05;;;;;;;15.03;9.93;;;4.30;99.90;;;;;;5018392;28;20507;-80
2023/04/08 05:30:31;;;;;;;17.27;10.47;;;4.30;99.90;;;;;;5052774;28;20376;-79
2023/04/08 05:32:56;;;;;;;16.37;10.90;;;4.40;99.90;;;;;;5019150;28;20029;-79
2023/04/08 05:35:22;;;;;;;18.60;11.57;;;4.30;99.90;;;;;;5022143;28;20028;-80
2023/04/08 05:37:48;;;;;;;16.30;10.63;;;4.40;99.90;;;;;;5021933;28;20073;-80
2023/04/08 05:40:13;;;;;;;18.83;11.67;;;4.40;99.90;;;;;;5022051;28;20473;-80
2023/04/08 05:42:41;;;;;;;18.07;11.47;;;4.40;99.90;;;;;;5022042;28;20389;-80
2023/04/08 05:45:07;;;;;;;17.37;11.37;;;4.50;99.90;;;;;;5022381;28;20025;-80
2023/04/08 05:47:32;;;;;;;18.80;12.03;;;4.40;99.90;;;;;;5038411;28;20092;-80
2023/04/08 05:49:58;;;;;;;19.33;11.73;;;4.40;99.90;;;;;;5021880;28;20055;-80
2023/04/08 05:52:24;;;;;;;20.13;11.70;;;4.40;99.90;;;;;;5021841;28;20024;-79
2023/04/08 05:54:49;;;;;;;19.27;11.83;;;4.30;99.90;;;;;;5021801;28;20045;-79
2023/04/08 05:57:15;;;;;;;18.53;12.53;;;4.40;99.90;;;;;;5021791;28;20021;-79
2023/04/08 05:59:41;;;;;;;20.70;13.43;;;4.50;99.90;;;;;;5021799;28;20021;-79
2023/04/08 06:02:07;;;;;;;19.60;12.43;;;4.50;99.90;;;;;;5038091;28;20031;-79
2023/04/08 06:04:32;;;;;;;18.37;12.33;;;4.50;99.90;;;;;;5021751;28;20029;-80
2023/04/08 06:06:59;;;;;;;17.60;11.47;;;4.50;99.90;;;;;;5021586;28;20081;-80
2023/04/08 06:09:25;;;;;;;20.90;12.87;;;4.50;99.90;;;;;;5021900;28;20598;-80
2023/04/08 06:11:51;;;;;;;18.73;12.40;;;4.60;99.90;;;;;;5037928;28;20021;-79
2023/04/08 06:14:17;;;;;;;19.53;12.20;;;4.60;99.90;;;;;;5021436;28;20028;-79
2023/04/08 06:16:43;;;;;;;21.70;13.50;;;4.60;99.90;;;;;;5038004;28;20033;-80
2023/04/08 06:19:08;;;;;;;20.77;13.03;;;4.70;99.90;;;;;;5021335;28;20044;-80
2023/04/08 06:21:34;;;;;;;18.47;12.53;;;4.70;99.90;;;;;;5037845;28;20358;-80
2023/04/08 06:24:00;;;;;;;19.77;13.27;;;4.70;99.90;;;;;;5037492;28;20032;-80
2023/04/08 06:26:26;;;;;;;18.60;12.67;;;4.80;99.90;;;;;;5021165;28;20025;-80
2023/04/08 06:28:52;;;;;;;19.27;12.80;;;4.80;99.90;;;;;;5021224;28;20439;-80
2023/04/08 06:31:18;;;;;;;19.57;12.10;;;4.90;99.90;;;;;;5037591;28;20032;-80
2023/04/08 06:33:43;;;;;;;20.27;13.43;;;4.90;99.90;;;;;;5037538;28;20039;-80
2023/04/08 06:36:10;;;;;;;19.97;13.30;;;4.90;99.90;;;;;;5037531;28;20033;-80
2023/04/08 06:38:35;;;;;;;19.27;12.50;;;4.90;99.90;;;;;;5033981;28;20037;-79
2023/04/08 06:41:05;;;;;;;19.97;13.30;;;5.00;99.90;;;;;;5034191;28;20033;-79
2023/04/08 06:43:32;;;;;;;21.07;13.33;;;5.00;99.90;;;;;;5035282;28;20033;-80
2023/04/08 06:45:58;;;;;;;21.10;14.20;;;5.10;99.90;;;;;;5034003;28;20048;-80
2023/04/08 06:48:29;;;;;;;23.70;15.00;;;5.10;99.90;;;;;;5033933;28;20029;-80
2023/04/08 06:50:55;;;;;;;18.00;13.07;;;5.20;99.90;;;;;;5035314;28;20030;-80
2023/04/08 06:53:25;;;;;;;19.07;12.90;;;5.20;99.90;;;;;;5017489;28;20033;-80
2023/04/08 06:55:51;;;;;;;19.93;14.03;;;5.30;99.90;;;;;;5035038;28;20036;-80
2023/04/08 06:58:17;;;;;;;20.10;12.40;;;5.30;99.90;;;;;;5033587;28;20478;-80
2023/04/08 07:00:42;;;;;;;19.00;13.40;;;5.40;99.90;;;;;;5033741;28;20025;-80
2023/04/08 07:03:08;;;;;;;19.43;13.47;;;5.40;99.90;;;;;;5017106;28;20028;-80
2023/04/08 07:05:37;;;;;;;19.53;13.33;;;5.50;99.90;;;;;;5017058;28;20108;-80
2023/04/08 07:08:03;;;;;;;19.07;13.07;;;5.50;99.90;;;;;;5034640;28;20107;-81
2023/04/08 07:10:29;;;;;;;17.40;12.20;;;5.60;99.90;;;;;;5017266;28;20117;-80
2023/04/08 07:12:55;;;;;;;19.03;13.23;;;5.70;99.90;;;;;;5033631;28;20442;-79
2023/04/08 07:15:21;;;;;;;17.53;11.97;;;5.70;99.90;;;;;;5033352;28;20032;-79
2023/04/08 07:17:46;;;;;;;18.83;13.07;;;5.90;99.90;;;;;;5033603;28;20049;-79
2023/04/08 07:20:12;;;;;;;17.63;12.40;;;5.80;99.90;;;;;;5016854;28;20112;-81
2023/04/08 07:22:39;;;;;;;19.57;13.00;;;5.90;99.90;;;;;;5016757;28;20025;-79
2023/04/08 07:25:05;;;;;;;16.23;11.73;;;6.00;99.90;;;;;;5033177;28;20026;-79
2023/04/08 07:27:32;;;;;;;19.27;12.77;;;6.00;99.90;;;;;;5016874;28;20106;-80
2023/04/08 07:29:58;;;;;;;18.13;11.93;;;6.10;99.90;;;;;;5033169;28;20029;-80
2023/04/08 07:32:23;;;;;;;17.10;11.57;;;6.20;99.90;;;;;;5016652;28;20124;-80
2023/04/08 07:34:49;;;;;;;16.80;11.43;;;6.20;99.90;;;;;;5016503;28;20432;-80
2023/04/08 07:37:15;;;;;;;16.50;11.07;;;6.30;99.90;;;;;;5019214;28;20049;-80
2023/04/08 07:39:40;;;;;;;17.70;11.33;;;6.30;99.90;;;;;;5019887;28;20044;-80
2023/04/08 07:42:06;;;;;;;16.57;11.23;;;6.40;99.90;;;;;;5024267;28;20094;-79
2023/04/08 07:44:31;;;;;;;16.83;10.87;;;6.50;99.90;;;;;;5036452;28;20473;-80
2023/04/08 07:46:57;;;;;;;14.20;10.10;;;6.50;99.90;;;;;;5036165;28;20082;-79
2023/04/08 07:49:23;;;;;;;16.73;11.37;;;6.60;99.90;;;;;;5031301;28;20025;-79
2023/04/08 07:51:48;;;;;;;15.57;10.97;;;6.70;99.90;;;;;;5050598;28;20029;-80
2023/04/08 07:54:16;;;;;;;19.30;11.63;;;6.70;99.90;;;;;;5035793;28;20055;-80
2023/04/08 07:56:43;;;;;;;17.37;10.77;;;6.80;99.90;;;;;;5035465;28;20029;-81
2023/04/08 07:59:10;;;;;;;14.53;10.27;;;6.90;99.90;;;;;;5053856;28;20092;-80
2023/04/08 08:01:35;;;;;;;16.10;10.23;;;6.90;99.90;;;;;;5035770;28;20116;-80
2023/04/08 08:04:02;;;;;;;17.50;10.63;;;7.00;99.90;;;;;;5055414;28;20443;-81
2023/04/08 08:06:28;;;;;;;15.33;10.50;;;7.00;99.90;;;;;;5033500;28;20029;-81
2023/04/08 08:08:53;;;;;;;15.23;10.07;;;7.10;99.90;;;;;;5035686;28;20439;-81
2023/04/08 08:11:20;;;;;;;14.87;10.10;;;7.20;99.90;;;;;;5020026;28;20116;-82
2023/04/08 08:13:45;;;;;;;15.80;9.40;;;7.20;99.90;;;;;;5049059;28;20028;-82
2023/04/08 08:16:11;;;;;;;14.37;9.27;;;7.30;99.90;;;;;;5024290;28;20099;-81
2023/04/08 08:18:38;;;;;;;14.23;9.83;;;7.40;99.90;;;;;;5021854;28;20052;-80
2023/04/08 08:21:04;;;;;;;14.03;9.20;;;7.50;99.90;;;;;;5053952;28;20143;-81
2023/04/08 08:23:30;;;;;;;13.20;9.47;;;7.60;99.90;;;;;;5019187;28;20041;-81
2023/04/08 08:26:06;;;;;;;14.57;9.73;;;7.60;99.90;;;;;;5058337;28;20039;-81
2023/04/08 08:28:32;;;;;;;13.77;9.17;;;7.70;99.90;;;;;;5035366;28;20029;-81
2023/04/08 08:30:58;;;;;;;12.60;9.00;;;7.80;99.90;;;;;;5035555;28;20060;-81
2023/04/08 08:33:24;;;;;;;13.20;9.07;;;7.90;99.90;;;;;;5035429;28;20060;-80
2023/04/08 08:35:50;;;;;;;12.43;8.20;;;8.00;99.90;;;;;;5035126;28;20029;-81
2023/04/08 08:38:17;;;;;;;13.67;8.50;;;8.10;99.90;;;;;;5035298;28;20063;-81
2023/04/08 08:40:44;;;;;;;12.40;8.53;;;8.20;99.90;;;;;;5018870;28;20048;-81
2023/04/08 08:43:10;;;;;;;13.07;8.63;;;8.30;99.90;;;;;;5035290;28;20025;-81
2023/04/08 08:45:40;;;;;;;13.47;8.83;;;8.30;99.90;;;;;;5035645;28;20029;-81
2023/04/08 08:48:09;;;;;;;12.60;8.77;;;8.40;99.90;;;;;;5035262;28;20075;-81
2023/04/08 08:50:35;;;;;;;12.07;8.00;;;8.60;99.90;;;;;;5035241;28;20021;-81
2023/04/08 08:53:01;;;;;;;11.63;7.40;;;8.70;99.90;;;;;;5072864;28;20556;-81
2023/04/08 08:55:31;;;;;;;12.20;8.17;;;8.80;99.90;;;;;;5038428;28;20031;-81
2023/04/08 08:57:56;;;;;;;12.27;7.33;;;8.90;99.90;;;;;;5055026;28;20481;-81
2023/04/08 09:00:35;;;;;;;13.70;7.97;;;9.00;99.90;;;;;;5055064;28;20023;-81
2023/04/08 09:03:19;;;;;;;13.00;8.37;;;9.10;99.90;;;;;;5073069;28;20504;-82
2023/04/08 09:05:53;;;;;;;11.68;8.20;;;9.20;99.90;;;;;;5054983;28;20511;-82
2023/04/08 09:08:33;;;;;;;11.43;7.37;;;9.30;99.90;;;;;;5058020;28;20028;-81
2023/04/08 09:11:20;;;;;;;14.20;9.40;;;9.40;99.90;;;;;;5055467;28;20029;-81
2023/04/08 09:13:46;;;;;;;12.63;8.50;;;9.50;99.90;;;;;;5056239;28;20025;-81
2023/04/08 09:16:17;;;;;;;12.30;8.80;;;9.60;99.90;;;;;;5056766;28;20032;-80
2023/04/08 09:18:45;;;;;;;10.33;7.60;;;9.70;99.90;;;;;;5056881;28;20052;-81
2023/04/08 09:21:12;;;;;;;10.43;7.60;;;9.80;99.90;;;;;;5055431;28;20029;-79
2023/04/08 09:23:42;;;;;;;13.77;8.03;;;9.80;99.90;;;;;;5056942;28;20049;-80
2023/04/08 09:26:18;;;;;;;12.10;8.47;;;9.90;99.90;;;;;;5055493;28;20025;-81
2023/04/08 09:28:57;;;;;;;12.97;7.83;;;10.00;99.90;;;;;;5038941;28;20049;-80
2023/04/08 09:31:26;;;;;;;12.38;8.07;;;10.20;99.90;;;;;;5056873;28;20055;-81
2023/04/08 09:33:55;;;;;;;12.85;7.97;;;10.30;99.90;;;;;;5055404;28;20029;-79
2023/04/08 09:36:21;;;;;;;12.30;7.10;;;10.40;99.90;;;;;;5055134;28;20029;-80
2023/04/08 09:38:47;;;;;;;11.95;7.40;;;10.50;99.90;;;;;;5055044;28;20057;-80
2023/04/08 09:41:15;;;;;;;8.87;6.37;;;10.60;99.90;;;;;;5055068;28;20021;-79
2023/04/08 09:43:47;;;;;;;11.02;6.70;;;10.70;99.90;;;;;;5052194;28;20033;-80
2023/04/08 09:46:15;;;;;;;11.50;7.22;;;10.80;99.90;;;;;;5058244;28;20035;-80
2023/04/08 09:48:48;;;;;;;14.27;7.85;;;10.90;99.70;;;;;;5041922;28;20035;-80
2023/04/08 09:51:18;;;;;;;13.18;8.52;;;11.00;98.90;;;;;;5058400;28;20377;-79
2023/04/08 09:53:47;;;;;;;11.63;8.57;;;11.10;98.20;;;;;;5058347;28;20044;-80
2023/04/08 09:56:15;;;;;;;13.80;8.45;;;11.20;97.90;;;;;;5048780;28;20480;-79
2023/04/08 09:58:51;;;;;;;11.25;7.75;;;11.30;96.80;;;;;;5037957;28;20025;-80
2023/04/08 10:01:23;;;;;;;13.68;8.32;;;11.40;96.40;;;;;;5038331;28;20465;-79
2023/04/08 10:03:53;;;;;;;13.40;7.65;;;11.50;96.10;;;;;;5038099;28;20372;-80
2023/04/08 10:06:20;;;;;;;10.65;7.72;;;11.60;95.30;;;;;;5038273;28;20032;-81
2023/04/08 10:08:46;;;;;;;11.63;7.43;;;11.70;95.10;;;;;;5007406;28;20033;-81
2023/04/08 10:11:14;;;;;;;10.00;6.75;;;11.90;94.80;;;;;;5025133;28;20388;-80
2023/04/08 10:13:40;;;;;;;9.43;6.28;;;12.20;94.70;;;;;;5041202;28;20031;-77
2023/04/08 10:16:23;;;;;;;8.88;5.50;;;12.50;94.20;;;;;;5024749;28;20029;-80
2023/04/08 10:18:54;;;;;;;9.07;5.82;;;12.90;93.30;;;;;;5057198;28;20078;-80
2023/04/08 10:21:39;;;;;;;12.27;5.82;;;13.40;92.50;;;;;;5042955;28;20024;-81
2023/04/08 10:24:09;;;;;;;8.27;5.10;;;13.90;91.70;;;;;;5057465;28;20070;-81
2023/04/08 10:26:42;;;;;;;8.02;4.72;;;14.50;92.30;;;;;;5057834;28;20025;-81
2023/04/08 10:29:31;;;;;;;6.38;4.72;;;15.10;92.30;;;;;;5039184;28;20029;-81
2023/04/08 10:31:57;;;;;;;7.68;4.18;;;16.00;91.20;;;;;;5044291;28;20067;-81
2023/04/08 10:34:25;;;;;;;6.13;4.03;;;16.80;91.60;;;;;;5044482;28;20171;-81
2023/04/08 10:36:54;;;;;;;6.15;3.45;;;17.70;90.80;;;;;;5075753;28;20050;-81
2023/04/08 10:39:20;;;;;;;5.32;3.10;;;18.40;89.00;;;;;;5057223;28;20098;-79
2023/04/08 10:41:48;;;;;;;5.22;3.03;;;19.20;84.30;;;;;;5041518;28;20027;-81
2023/04/08 10:44:27;;;;;;;5.65;2.47;;;20.00;81.20;;;;;;5057375;28;20056;-80
2023/04/08 10:46:54;;;;;;;6.03;3.60;;;20.70;76.60;;;;;;5040954;28;20063;-80
2023/04/08 10:49:21;;;;;;;4.28;2.70;;;21.00;75.00;;;;;;5058038;28;20028;-80
2023/04/08 10:51:47;;;;;;;6.93;3.60;;;21.00;71.80;;;;;;5041537;28;20086;-81
2023/04/08 10:54:15;;;;;;;5.70;3.80;;;20.80;69.40;;;;;;5057546;28;20502;-80
2023/04/08 10:56:46;;;;;;;5.10;3.33;;;20.60;67.10;;;;;;5075417;28;20032;-80
2023/04/08 10:59:15;;;;;;;8.05;3.55;;;20.40;65.00;;;;;;5056947;28;20539;-80
2023/04/08 11:01:43;;;;;;;7.25;4.30;;;20.30;63.00;;;;;;5056920;28;20031;-80
2023/04/08 11:04:14;;;;;;;7.28;4.07;;;20.10;61.50;;;;;;5057153;28;20021;-81
2023/04/08 11:06:41;;;;;;;6.68;3.92;;;19.90;60.20;;;;;;5075225;28;20035;-80
2023/04/08 11:09:07;;;;;;;8.02;4.55;;;19.80;59.80;;;;;;5075219;28;20032;-81
2023/04/08 11:11:34;;;;;;;5.68;3.72;;;19.70;58.70;;;;;;5040305;28;20036;-82
2023/04/08 11:14:00;;;;;;;7.72;3.83;;;19.70;58.60;;;;;;5040668;28;20031;-82
2023/04/08 11:16:27;;;;;;;8.02;4.70;;;19.70;57.80;;;;;;5056796;28;20039;-77
2023/04/08 11:18:54;;;;;;;7.10;4.03;;;19.80;57.60;;;;;;5056727;28;20052;-77
2023/04/08 11:21:22;;;;;;;6.38;3.92;;;20.00;56.70;;;;;;5040580;28;20081;-77
2023/04/08 11:23:51;;;;;;;6.82;3.92;;;20.50;56.40;;;;;;5040300;28;20020;-77
2023/04/08 11:26:18;;;;;;;6.40;3.65;;;21.00;55.40;;;;;;5030061;28;20484;-77
2023/04/08 11:28:45;;;;;;;5.75;3.20;;;21.60;54.30;;;;;;5036666;28;20357;-77
2023/04/08 11:31:12;;;;;;;6.13;3.10;;;21.90;54.10;;;;;;5036634;28;20115;-77
2023/04/08 11:33:43;;;;;;;5.18;2.80;;;22.10;54.10;;;;;;5047250;28;20075;-77
2023/04/08 11:36:11;;;;;;;5.38;3.22;;;22.40;54.00;;;;;;5038028;28;20472;-78
2023/04/08 11:38:42;;;;;;;5.95;2.88;;;22.60;52.80;;;;;;5056109;28;20079;-77
2023/04/08 11:41:08;;;;;;;5.80;3.30;;;22.50;51.80;;;;;;5059193;28;20035;-77
2023/04/08 11:43:35;;;;;;;5.93;3.25;;;22.50;50.80;;;;;;5019629;28;20033;-77
2023/04/08 11:46:09;;;;;;;7.00;3.75;;;22.30;50.40;;;;;;5036600;28;20028;-77
2023/04/08 11:48:35;;;;;;;8.20;4.03;;;22.10;49.10;;;;;;5036103;28;20033;-77
2023/04/08 12:57:30;;;;;;;3.50;1.80;;;24.00;45.60;;;;;;5028723;27;2005007;-83
2023/04/08 12:59:56;;;;;;;3.65;2.13;;;23.70;45.80;;;;;;5073880;28;20029;-83
2023/04/08 13:02:24;;;;;;;4.80;2.63;;;23.50;44.90;;;;;;5072713;28;20035;-84
2023/04/08 13:04:52;;;;;;;4.00;2.40;;;23.30;44.10;;;;;;5090890;28;20103;-83
2023/04/08 13:07:18;;;;;;;4.43;2.22;;;23.10;44.20;;;;;;5040173;28;20498;-83
2023/04/08 13:09:44;;;;;;;4.40;2.28;;;22.90;44.40;;;;;;5039429;28;20028;-83
2023/04/08 13:12:11;;;;;;;5.43;1.80;;;23.00;44.90;;;;;;5090715;28;20103;-83
2023/04/08 13:14:37;;;;;;;4.65;2.17;;;23.00;45.10;;;;;;5072297;28;20020;-83
2023/04/08 13:17:03;;;;;;;5.03;2.67;;;23.00;44.90;;;;;;5055735;28;20032;-83
2023/04/08 13:19:29;;;;;;;6.03;2.33;;;22.80;43.20;;;;;;5056193;28;20052;-82
2023/04/08 13:21:58;;;;;;;4.90;2.65;;;22.50;42.80;;;;;;5055773;28;20039;-82
2023/04/08 13:24:24;;;;;;;4.80;3.17;;;22.10;42.60;;;;;;5071681;28;20033;-80
2023/04/08 13:26:50;;;;;;;5.00;3.10;;;21.60;43.30;;;;;;5038966;28;20040;-78
2023/04/08 13:29:15;;;;;;;6.50;3.60;;;21.20;43.70;;;;;;5055647;28;20123;-78
2023/04/08 13:31:41;;;;;;;5.55;2.83;;;20.90;44.10;;;;;;5072248;28;20107;-78
2023/04/08 13:34:07;;;;;;;7.30;3.55;;;20.60;44.00;;;;;;5055169;28;20078;-78
2023/04/08 13:36:32;;;;;;;4.70;2.50;;;20.50;44.80;;;;;;5072353;28;20031;-78
2023/04/08 13:38:58;;;;;;;6.88;3.17;;;20.50;45.50;;;;;;5054780;28;20032;-79
2023/04/08 13:41:24;;;;;;;5.22;2.85;;;20.50;45.50;;;;;;5053581;28;20020;-78
2023/04/08 13:43:49;;;;;;;4.65;2.65;;;20.50;45.70;;;;;;5069876;28;20031;-78
2023/04/08 13:46:15;;;;;;;5.55;3.05;;;20.60;45.90;;;;;;5036797;28;20024;-78
2023/04/08 13:48:41;;;;;;;6.80;3.42;;;20.70;45.70;;;;;;5069753;28;20067;-81
2023/04/08 13:51:07;;;;;;;4.63;2.75;;;20.90;45.90;;;;;;5069973;28;20078;-80